Archival Weather

Republic

Farmingdale, New York (KFRG)

Report from: Friday, February 23, 2024 7:53 AM EST
Current time: Monday, June 24, 2024 5:09 AM EDT

Current weather – Weather history – Daily summaries
Weather forecast

Temperature7.2°C (45.0°F)
Wind chill5.9°C (42.6°F)
Dew point4.4°C (39.9°F)
Winds 4 kts (2.1 m/s, 4.6 mph) Northwest (310°)
Visibility10 mi. (16.1 km)
Clouds Ceiling: Overcast 10,000 ft. (3,048 m)
Altimeter29.51 in.Hg (999 mB)
Relative humidity82 %
Density altitude-342 ft. (-104 m)
Sea-level pressure99.9 kPa (999 mB, 29.51 in.Hg)
Remarks Automated weather observing station without precipitation discriminator
Flight conditions Visual Meteorological Conditions
Raw dataKFRG 231253Z 31004KT 10SM OVC100 07/04 A2951 RMK AO1 SLP994 T00720044
An error has occurred. This application may no longer respond until reloaded. Reload 🗙